createdAt,value
2023-01-30T00:04:00.938Z,-1.79
2023-01-30T00:10:03.361Z,-1.69
2023-01-30T00:16:08.722Z,-1.34
2023-01-30T00:22:11.293Z,-1.79
2023-01-30T00:28:13.823Z,-2.05
2023-01-30T00:34:15.866Z,-2.61
2023-01-30T00:40:20.805Z,-1.74
2023-01-30T00:46:59.287Z,-1.79
2023-01-30T00:53:01.777Z,-1.87
2023-01-30T00:59:07.240Z,-1.73
2023-01-30T01:05:09.687Z,-1.63
2023-01-30T01:11:26.201Z,-2.16
2023-01-30T01:17:28.653Z,-1.67
2023-01-30T01:23:31.103Z,-2.35
2023-01-30T01:29:33.576Z,-1.65
2023-01-30T01:35:36.049Z,-1.96
2023-01-30T01:41:38.494Z,-1.56
2023-01-30T01:47:58.020Z,-1.36
2023-01-30T01:54:10.485Z,-1.46
2023-01-30T02:00:16.013Z,-1.57
2023-01-30T02:06:19.426Z,-1.58
2023-01-30T02:12:21.897Z,-2.57
2023-01-30T02:18:26.970Z,-1.81
2023-01-30T02:24:49.661Z,-1.58
2023-01-30T02:31:00.587Z,-1.86
2023-01-30T02:37:40.984Z,-2.00
2023-01-30T02:44:06.524Z,-1.75
2023-01-30T02:50:15.020Z,-1.61
2023-01-30T02:56:17.471Z,-1.55
2023-01-30T03:02:50.801Z,-1.55
2023-01-30T03:09:08.143Z,-1.92
2023-01-30T03:15:22.092Z,-2.05
2023-01-30T03:21:28.602Z,-2.42
2023-01-30T03:27:31.058Z,-2.43
2023-01-30T03:33:33.546Z,-2.98
2023-01-30T03:39:38.956Z,-3.01
2023-01-30T03:45:41.420Z,-3.00
2023-01-30T03:51:45.691Z,-2.87
2023-01-30T03:57:51.351Z,-3.48
2023-01-30T04:03:57.814Z,-3.95
2023-01-30T04:10:00.349Z,-3.58
2023-01-30T04:16:22.818Z,-3.76
2023-01-30T04:22:27.011Z,-4.03
2023-01-30T04:28:29.708Z,-3.90
2023-01-30T04:34:32.165Z,-3.64
2023-01-30T04:40:34.608Z,-4.14
2023-01-30T04:46:37.072Z,-4.10
2023-01-30T04:52:39.967Z,-4.29
2023-01-30T04:58:41.971Z,-4.49
2023-01-30T05:04:43.738Z,-3.55
2023-01-30T05:10:51.903Z,-3.33
2023-01-30T05:16:55.955Z,-3.78
2023-01-30T05:22:57.875Z,-3.25
2023-01-30T05:29:00.338Z,-3.52
2023-01-30T05:35:02.812Z,-4.23
2023-01-30T05:41:07.469Z,-4.17
2023-01-30T05:47:10.699Z,-4.31
2023-01-30T05:53:15.175Z,-4.70
2023-01-30T05:59:19.638Z,-4.57
2023-01-30T06:05:21.623Z,-4.43
2023-01-30T06:11:25.591Z,-4.35
2023-01-30T06:17:29.959Z,-4.21
2023-01-30T06:23:32.524Z,-4.07
2023-01-30T06:29:35.015Z,-3.92
2023-01-30T06:35:42.469Z,-4.50
2023-01-30T06:41:44.476Z,-4.14
2023-01-30T06:47:54.462Z,-4.00
2023-01-30T06:53:59.848Z,-3.68
2023-01-30T07:00:01.891Z,-3.44
2023-01-30T07:06:03.912Z,-3.53
2023-01-30T07:12:06.237Z,-3.49
2023-01-30T07:18:08.761Z,-2.94
2023-01-30T07:24:11.184Z,-2.68
2023-01-30T07:30:13.653Z,-2.77
2023-01-30T07:36:16.118Z,-2.29
2023-01-30T07:42:18.597Z,-2.12
2023-01-30T07:48:21.085Z,-1.94
2023-01-30T07:54:23.027Z,-1.97
2023-01-30T08:00:25.280Z,-1.62
2023-01-30T08:06:30.439Z,-1.39
2023-01-30T08:12:32.903Z,-1.19
2023-01-30T08:18:36.347Z,-1.09
2023-01-30T08:24:38.077Z,-0.91
2023-01-30T08:30:41.937Z,-0.97
2023-01-30T08:36:49.837Z,-0.62
2023-01-30T08:42:52.275Z,-0.82
2023-01-30T08:48:54.695Z,-0.04
2023-01-30T08:55:06.088Z,-0.54
2023-01-30T09:01:11.074Z,-0.14
2023-01-30T09:07:13.152Z,0.14
2023-01-30T09:13:22.972Z,0.08
2023-01-30T09:19:37.226Z,0.48
2023-01-30T09:25:46.658Z,0.53
2023-01-30T09:31:55.548Z,0.54
2023-01-30T09:38:11.038Z,0.57
2023-01-30T09:44:24.120Z,0.84
2023-01-30T09:51:00.749Z,1.16
2023-01-30T09:57:23.251Z,1.25
2023-01-30T10:03:39.736Z,1.78
2023-01-30T10:10:24.220Z,1.73
2023-01-30T10:17:01.768Z,1.65
2023-01-30T10:23:17.198Z,2.06
2023-01-30T10:29:30.062Z,1.88
2023-01-30T10:35:44.542Z,2.27
2023-01-30T10:42:14.104Z,2.40
2023-01-30T10:48:46.401Z,1.63
2023-01-30T10:54:52.484Z,2.43
2023-01-30T11:01:15.242Z,2.62
2023-01-30T11:07:25.187Z,2.23
2023-01-30T11:13:42.230Z,2.67
2023-01-30T11:19:45.144Z,2.80
2023-01-30T11:26:09.170Z,2.98
2023-01-30T11:32:29.494Z,3.24
2023-01-30T11:38:48.705Z,2.64
2023-01-30T11:45:17.592Z,3.05
2023-01-30T11:51:26.809Z,1.99
2023-01-30T11:57:42.385Z,2.94
2023-01-30T12:03:55.866Z,2.79
2023-01-30T12:10:24.208Z,2.91
2023-01-30T12:17:04.761Z,3.16
2023-01-30T12:30:58.144Z,1.56
2023-01-30T12:37:30.038Z,1.36
2023-01-30T12:44:16.380Z,3.52
2023-01-30T12:50:32.541Z,3.28
2023-01-30T12:57:18.116Z,3.52
2023-01-30T13:03:44.666Z,3.20
2023-01-30T13:10:52.061Z,3.15
2023-01-30T13:17:12.683Z,3.28
2023-01-30T13:23:57.292Z,3.13
2023-01-30T13:30:12.999Z,3.17
2023-01-30T13:36:52.177Z,3.05
2023-01-30T13:43:41.984Z,2.48
2023-01-30T13:50:12.796Z,2.86
2023-01-30T13:56:49.856Z,2.91
2023-01-30T14:03:25.769Z,1.69
2023-01-30T14:09:37.267Z,2.30
2023-01-30T14:16:28.638Z,1.99
2023-01-30T14:22:46.685Z,1.90
2023-01-30T14:28:59.977Z,-0.11
2023-01-30T14:35:17.173Z,0.84
2023-01-30T14:41:35.225Z,1.02
2023-01-30T14:47:46.871Z,0.94
2023-01-30T14:54:03.358Z,1.00
2023-01-30T15:00:40.216Z,0.64
2023-01-30T15:06:50.068Z,0.07
2023-01-30T15:13:36.874Z,0.40
2023-01-30T15:20:21.324Z,0.38
2023-01-30T15:26:52.951Z,0.30
2023-01-30T15:33:30.863Z,0.22
2023-01-30T15:39:33.946Z,0.31
2023-01-30T15:52:18.019Z,0.32
2023-01-30T15:58:26.392Z,-0.66
2023-01-30T16:04:37.008Z,-0.45
2023-01-30T16:10:51.559Z,-0.35
2023-01-30T16:17:12.513Z,-1.04
2023-01-30T16:23:30.814Z,0.13
2023-01-30T16:29:57.764Z,-0.49
2023-01-30T16:36:04.963Z,0.21
2023-01-30T16:42:35.110Z,-1.45
2023-01-30T16:48:41.675Z,-0.40
2023-01-30T16:55:00.170Z,0.10
2023-01-30T17:01:18.357Z,0.23
2023-01-30T17:14:18.608Z,0.07
2023-01-30T17:26:40.704Z,0.45
2023-01-30T17:32:58.485Z,-0.26
2023-01-30T17:39:00.466Z,0.25
2023-01-30T17:45:03.318Z,0.50
2023-01-30T17:51:05.822Z,0.63
2023-01-30T17:57:12.584Z,0.78
2023-01-30T18:03:15.808Z,0.81
2023-01-30T18:09:23.268Z,0.85
2023-01-30T18:15:26.739Z,0.81
2023-01-30T18:21:29.189Z,0.18
2023-01-30T18:27:35.062Z,0.86
2023-01-30T18:33:38.101Z,0.83
2023-01-30T18:39:52.036Z,0.82
2023-01-30T18:46:09.208Z,0.91
2023-01-30T18:52:17.639Z,0.17
2023-01-30T18:58:35.799Z,0.06
2023-01-30T19:04:38.631Z,0.08
2023-01-30T19:10:41.060Z,1.00
2023-01-30T19:16:45.997Z,0.81
2023-01-30T19:22:57.529Z,0.36
2023-01-30T19:29:01.511Z,0.40
2023-01-30T19:35:07.970Z,-0.04
2023-01-30T19:41:18.471Z,0.35
2023-01-30T19:47:30.963Z,0.48
2023-01-30T19:53:37.430Z,0.74
2023-01-30T19:59:40.895Z,0.96
2023-01-30T20:05:45.848Z,0.09
2023-01-30T20:11:49.832Z,0.40
2023-01-30T20:18:02.069Z,0.31
2023-01-30T20:24:20.054Z,-0.17
2023-01-30T20:30:26.285Z,0.95
2023-01-30T20:36:30.621Z,0.92
2023-01-30T20:42:36.204Z,1.02
2023-01-30T20:48:44.070Z,0.85
2023-01-30T21:01:26.868Z,0.04
2023-01-30T21:07:29.226Z,0.69
2023-01-30T21:13:39.423Z,-0.35
2023-01-30T21:19:43.527Z,0.96
2023-01-30T21:25:46.000Z,1.19
2023-01-30T21:31:49.923Z,1.14
2023-01-30T21:38:19.679Z,1.03
2023-01-30T21:44:30.158Z,1.16
2023-01-30T21:50:37.952Z,-0.02
2023-01-30T21:56:40.753Z,0.56
2023-01-30T22:02:56.718Z,0.95
2023-01-30T22:09:08.043Z,0.33
2023-01-30T22:15:22.256Z,0.94
2023-01-30T22:21:29.154Z,1.13
2023-01-30T22:27:31.975Z,0.58
2023-01-30T22:33:37.115Z,1.27
2023-01-30T22:39:39.561Z,1.11
2023-01-30T22:45:42.042Z,0.75
2023-01-30T22:51:46.578Z,0.64
2023-01-30T22:57:59.077Z,0.64
2023-01-30T23:04:27.616Z,0.22
2023-01-30T23:10:30.084Z,-0.04
2023-01-30T23:16:48.779Z,0.46
2023-01-30T23:23:07.894Z,0.46
2023-01-30T23:29:29.063Z,0.72
2023-01-30T23:35:50.521Z,0.06
2023-01-30T23:42:01.303Z,0.69
2023-01-30T23:48:19.009Z,0.70
2023-01-30T23:54:33.117Z,0.43
